createdAt,value
2019-03-01T00:00:16.081Z,12.80
2019-03-01T00:02:43.373Z,12.37
2019-03-01T00:05:12.292Z,11.22
2019-03-01T00:07:57.465Z,11.40
2019-03-01T00:10:38.313Z,11.53
2019-03-01T00:13:23.721Z,12.65
2019-03-01T00:15:52.655Z,11.63
2019-03-01T00:18:24.290Z,10.80
2019-03-01T00:20:59.153Z,12.13
2019-03-01T00:23:39.748Z,10.58
2019-03-01T00:26:11.361Z,11.08
2019-03-01T00:28:49.253Z,10.65
2019-03-01T00:31:20.853Z,10.65
2019-03-01T00:33:55.516Z,11.20
2019-03-01T00:36:27.469Z,9.88
2019-03-01T00:39:12.603Z,11.95
2019-03-01T00:41:41.536Z,11.43
2019-03-01T00:44:13.377Z,11.57
2019-03-01T00:46:40.698Z,11.80
2019-03-01T00:49:08.015Z,11.85
2019-03-01T00:51:35.333Z,11.90
2019-03-01T00:54:02.633Z,11.28
2019-03-01T00:56:29.945Z,12.03
2019-03-01T00:58:57.251Z,11.18
2019-03-01T01:01:24.566Z,10.93
2019-03-01T01:03:51.853Z,10.60
2019-03-01T01:06:19.152Z,11.20
2019-03-01T01:08:46.478Z,11.48
2019-03-01T01:11:13.760Z,11.30
2019-03-01T01:13:41.059Z,10.30
2019-03-01T01:16:08.368Z,10.05
2019-03-01T01:18:35.678Z,10.55
2019-03-01T01:21:02.961Z,9.80
2019-03-01T01:23:30.270Z,10.00
2019-03-01T01:25:57.560Z,8.85
2019-03-01T01:28:24.870Z,9.55
2019-03-01T01:30:52.185Z,9.75
2019-03-01T01:33:19.481Z,8.93
2019-03-01T01:35:46.765Z,7.35
2019-03-01T01:38:14.091Z,8.90
2019-03-01T01:40:41.382Z,8.00
2019-03-01T01:43:08.680Z,9.20
2019-03-01T01:45:35.994Z,9.28
2019-03-01T01:48:03.308Z,8.03
2019-03-01T01:50:30.589Z,8.13
2019-03-01T01:52:57.915Z,7.78
2019-03-01T01:55:25.211Z,7.92
2019-03-01T01:57:52.507Z,9.75
2019-03-01T02:00:19.805Z,9.03
2019-03-01T02:02:47.105Z,8.15
2019-03-01T02:05:14.418Z,8.43
2019-03-01T02:07:41.721Z,8.00
2019-03-01T02:10:09.175Z,7.20
2019-03-01T02:12:36.491Z,8.43
2019-03-01T02:15:04.759Z,8.13
2019-03-01T02:17:32.045Z,8.73
2019-03-01T02:19:59.362Z,8.15
2019-03-01T02:22:26.657Z,8.00
2019-03-01T02:24:53.929Z,7.40
2019-03-01T02:27:22.015Z,7.45
2019-03-01T02:29:49.325Z,7.47
2019-03-01T02:32:18.245Z,8.28
2019-03-01T02:34:45.552Z,6.80
2019-03-01T02:37:12.855Z,7.03
2019-03-01T02:39:40.177Z,7.20
2019-03-01T02:42:07.485Z,7.95
2019-03-01T02:44:34.779Z,6.65
2019-03-01T02:47:02.061Z,7.80
2019-03-01T02:49:29.382Z,7.55
2019-03-01T02:51:56.685Z,7.25
2019-03-01T02:54:23.985Z,8.20
2019-03-01T02:56:51.287Z,6.55
2019-03-01T02:59:18.607Z,6.67
2019-03-01T03:01:45.896Z,6.60
2019-03-01T03:04:13.207Z,7.25
2019-03-01T03:06:42.145Z,6.97
2019-03-01T03:09:09.798Z,7.10
2019-03-01T03:11:37.110Z,6.47
2019-03-01T03:14:04.403Z,6.60
2019-03-01T03:16:31.708Z,7.33
2019-03-01T03:18:59.000Z,7.95
2019-03-01T03:21:26.317Z,7.50
2019-03-01T03:23:53.599Z,7.25
2019-03-01T03:26:20.973Z,7.83
2019-03-01T03:28:48.271Z,7.28
2019-03-01T03:31:15.586Z,7.90
2019-03-01T03:33:42.859Z,8.45
2019-03-01T03:36:10.153Z,8.28
2019-03-01T03:38:37.459Z,9.45
2019-03-01T03:41:04.774Z,8.53
2019-03-01T03:43:32.055Z,8.20
2019-03-01T03:45:59.329Z,8.10
2019-03-01T03:48:26.653Z,7.97
2019-03-01T03:50:53.945Z,7.80
2019-03-01T03:53:21.230Z,7.00
2019-03-01T03:55:48.542Z,8.28
2019-03-01T03:58:15.835Z,9.40
2019-03-01T04:00:43.153Z,8.08
2019-03-01T04:03:10.444Z,9.35
2019-03-01T04:05:37.750Z,7.83
2019-03-01T04:08:05.034Z,7.78
2019-03-01T04:10:32.382Z,8.98
2019-03-01T04:12:59.638Z,8.50
2019-03-01T04:15:26.932Z,6.72
2019-03-01T04:17:54.216Z,7.55
2019-03-01T04:20:21.521Z,7.37
2019-03-01T04:22:48.833Z,8.55
2019-03-01T04:25:16.108Z,7.80
2019-03-01T04:27:43.395Z,7.00
2019-03-01T04:30:11.898Z,7.35
2019-03-01T04:32:39.177Z,7.00
2019-03-01T04:35:06.506Z,6.75
2019-03-01T04:37:33.775Z,6.42
2019-03-01T04:40:01.058Z,7.37
2019-03-01T04:42:28.364Z,7.20
2019-03-01T04:44:55.665Z,7.15
2019-03-01T04:47:22.954Z,7.42
2019-03-01T04:49:50.263Z,7.45
2019-03-01T04:52:31.266Z,7.55
2019-03-01T04:54:58.588Z,7.50
2019-03-01T04:57:25.895Z,8.35
2019-03-01T04:59:53.173Z,7.62
2019-03-01T05:02:20.491Z,8.43
2019-03-01T05:04:47.792Z,7.65
2019-03-01T05:07:15.098Z,7.87
2019-03-01T05:09:42.381Z,9.38
2019-03-01T05:12:10.073Z,8.38
2019-03-01T05:14:37.372Z,7.75
2019-03-01T05:17:04.671Z,6.97
2019-03-01T05:19:31.995Z,9.38
2019-03-01T05:21:59.288Z,6.58
2019-03-01T05:24:26.594Z,7.85
2019-03-01T05:26:53.898Z,11.00
2019-03-01T05:29:21.185Z,7.22
2019-03-01T05:31:48.506Z,7.00
2019-03-01T05:34:15.795Z,9.45
2019-03-01T05:36:43.090Z,7.03
2019-03-01T05:39:10.407Z,8.25
2019-03-01T05:41:37.698Z,7.67
2019-03-01T05:44:04.992Z,7.97
2019-03-01T05:46:32.295Z,7.72
2019-03-01T05:48:59.600Z,7.58
2019-03-01T05:51:26.893Z,8.45
2019-03-01T05:53:54.187Z,7.55
2019-03-01T05:56:21.499Z,9.18
2019-03-01T05:58:50.354Z,8.35
2019-03-01T06:01:22.346Z,8.28
2019-03-01T06:03:53.958Z,8.13
2019-03-01T06:06:34.619Z,8.08
2019-03-01T06:09:09.455Z,8.25
2019-03-01T06:11:38.394Z,9.35
2019-03-01T06:14:09.963Z,8.75
2019-03-01T06:16:40.206Z,8.70
2019-03-01T06:19:14.935Z,8.60
2019-03-01T06:21:58.839Z,9.08
2019-03-01T06:24:30.455Z,8.63
2019-03-01T06:27:16.432Z,8.15
2019-03-01T06:29:54.206Z,8.38
2019-03-01T06:32:39.627Z,7.90
2019-03-01T06:35:11.243Z,7.95
2019-03-01T06:37:58.182Z,8.28
2019-03-01T06:40:37.758Z,8.88
2019-03-01T06:43:06.674Z,8.10
2019-03-01T06:45:47.458Z,9.35
2019-03-01T06:48:16.390Z,7.83
2019-03-01T06:50:51.037Z,8.55
2019-03-01T06:53:18.336Z,7.80
2019-03-01T06:55:45.618Z,9.25
2019-03-01T06:58:14.416Z,8.10
2019-03-01T07:00:49.827Z,8.95
2019-03-01T07:03:12.283Z,7.90
2019-03-01T07:05:39.577Z,9.08
2019-03-01T07:08:06.871Z,9.20
2019-03-01T07:10:34.181Z,7.35
2019-03-01T07:13:01.464Z,7.53
2019-03-01T07:15:28.750Z,7.67
2019-03-01T07:17:56.058Z,7.78
2019-03-01T07:20:23.362Z,8.15
2019-03-01T07:22:50.663Z,7.92
2019-03-01T07:25:17.954Z,7.10
2019-03-01T07:27:45.249Z,7.70
2019-03-01T07:30:12.567Z,6.65
2019-03-01T07:32:39.863Z,6.30
2019-03-01T07:35:07.935Z,7.17
2019-03-01T07:37:35.222Z,7.20
2019-03-01T07:40:02.547Z,9.10
2019-03-01T07:42:29.835Z,6.62
2019-03-01T07:44:57.168Z,7.50
2019-03-01T07:47:24.434Z,6.60
2019-03-01T07:49:51.750Z,7.40
2019-03-01T07:52:19.038Z,7.62
2019-03-01T07:54:49.410Z,7.17
2019-03-01T07:57:15.663Z,7.05
2019-03-01T07:59:42.978Z,6.85
2019-03-01T08:02:10.283Z,6.03
2019-03-01T08:04:37.570Z,6.72
2019-03-01T08:07:04.907Z,6.97
2019-03-01T08:09:32.195Z,6.00
2019-03-01T08:11:59.480Z,7.55
2019-03-01T08:14:28.026Z,6.65
2019-03-01T08:16:56.085Z,6.20
2019-03-01T08:19:24.072Z,6.53
2019-03-01T08:21:51.366Z,6.90
2019-03-01T08:24:18.646Z,5.20
2019-03-01T08:26:45.964Z,6.15
2019-03-01T08:29:13.244Z,5.90
2019-03-01T08:31:40.559Z,6.10
2019-03-01T08:34:07.851Z,5.40
2019-03-01T08:36:35.176Z,6.50
2019-03-01T08:39:05.858Z,6.72
2019-03-01T08:41:34.207Z,5.85
2019-03-01T08:44:01.515Z,5.67
2019-03-01T08:46:28.802Z,5.80
2019-03-01T08:48:56.109Z,5.80
2019-03-01T08:51:26.451Z,5.90
2019-03-01T08:53:52.352Z,5.60
2019-03-01T08:56:25.818Z,6.03
2019-03-01T08:58:48.581Z,5.80
2019-03-01T09:01:17.503Z,5.17
2019-03-01T09:03:52.130Z,4.90
2019-03-01T09:06:19.415Z,5.22
2019-03-01T09:08:46.915Z,5.08
2019-03-01T09:11:14.217Z,5.37
2019-03-01T09:13:41.523Z,5.30
2019-03-01T09:16:08.808Z,4.35
2019-03-01T09:18:36.121Z,5.10
2019-03-01T09:21:05.850Z,4.78
2019-03-01T09:23:32.343Z,5.20
2019-03-01T09:25:59.651Z,5.35
2019-03-01T09:28:26.931Z,4.45
2019-03-01T09:30:54.276Z,5.50
2019-03-01T09:33:22.964Z,5.35
2019-03-01T09:35:57.956Z,4.85
2019-03-01T09:38:25.252Z,4.17
2019-03-01T09:40:52.540Z,4.80
2019-03-01T09:43:19.861Z,4.70
2019-03-01T09:45:48.738Z,4.40
2019-03-01T09:48:16.081Z,4.70
2019-03-01T09:50:43.407Z,4.87
2019-03-01T09:53:10.693Z,4.67
2019-03-01T09:55:38.601Z,4.72
2019-03-01T09:58:07.723Z,4.05
2019-03-01T10:00:36.552Z,3.92
2019-03-01T10:03:03.865Z,4.30
2019-03-01T10:05:31.151Z,4.17
2019-03-01T10:07:58.471Z,3.75
2019-03-01T10:10:30.056Z,4.37
2019-03-01T10:12:57.333Z,4.28
2019-03-01T10:15:24.652Z,3.62
2019-03-01T10:17:51.950Z,3.70
2019-03-01T10:20:19.236Z,4.17
2019-03-01T10:22:46.533Z,3.92
2019-03-01T10:25:14.497Z,3.60
2019-03-01T10:27:41.825Z,4.03
2019-03-01T10:30:16.685Z,3.72
2019-03-01T10:32:44.012Z,3.22
2019-03-01T10:35:11.574Z,3.70
2019-03-01T10:37:38.874Z,4.10
2019-03-01T10:40:07.950Z,3.27
2019-03-01T10:42:35.258Z,3.15
2019-03-01T10:45:02.642Z,3.45
2019-03-01T10:47:29.963Z,3.20
2019-03-01T10:49:57.250Z,4.35
2019-03-01T10:52:24.538Z,3.08
2019-03-01T10:54:51.856Z,3.70
2019-03-01T10:57:19.141Z,2.72
2019-03-01T10:59:46.429Z,3.60
2019-03-01T11:02:13.747Z,3.30
2019-03-01T11:04:41.035Z,2.90
2019-03-01T11:07:08.347Z,2.72
2019-03-01T11:09:35.643Z,2.77
2019-03-01T11:12:02.945Z,3.10
2019-03-01T11:14:30.263Z,3.47
2019-03-01T11:16:57.580Z,3.25
2019-03-01T11:19:24.883Z,2.52
2019-03-01T11:21:52.208Z,3.00
2019-03-01T11:24:19.514Z,3.30
2019-03-01T11:26:46.837Z,3.25
2019-03-01T11:29:14.138Z,3.58
2019-03-01T11:31:41.432Z,2.70
2019-03-01T11:34:08.752Z,3.27
2019-03-01T11:36:36.040Z,3.20
2019-03-01T11:39:04.531Z,3.50
2019-03-01T11:41:31.848Z,2.58
2019-03-01T11:43:59.140Z,3.05
2019-03-01T11:46:26.446Z,2.30
2019-03-01T11:48:53.767Z,2.55
2019-03-01T11:51:21.075Z,2.67
2019-03-01T11:53:48.373Z,3.08
2019-03-01T11:56:15.687Z,2.75
2019-03-01T11:58:43.192Z,3.00
2019-03-01T12:01:16.933Z,3.15
2019-03-01T12:03:39.402Z,3.80
2019-03-01T12:06:06.706Z,2.80
2019-03-01T12:08:34.842Z,3.62
2019-03-01T12:11:02.454Z,2.80
2019-03-01T12:13:31.193Z,2.62
2019-03-01T12:16:00.775Z,3.25
2019-03-01T12:18:30.619Z,2.90
2019-03-01T12:21:00.121Z,2.55
2019-03-01T12:23:29.583Z,3.20
2019-03-01T12:25:58.672Z,12.05
2019-03-01T12:28:28.307Z,5.45
2019-03-01T12:30:57.791Z,3.50
2019-03-01T12:33:28.155Z,4.90
2019-03-01T12:35:57.545Z,2.50
2019-03-01T12:38:26.934Z,3.58
2019-03-01T12:40:54.351Z,2.30
2019-03-01T12:43:21.671Z,4.20
2019-03-01T12:45:48.963Z,3.55
2019-03-01T12:48:16.267Z,2.30
2019-03-01T12:50:43.579Z,3.27
2019-03-01T12:53:10.866Z,6.15
2019-03-01T12:55:38.170Z,2.92
2019-03-01T12:58:05.465Z,2.60
2019-03-01T13:00:33.320Z,2.42
2019-03-01T13:03:00.618Z,3.10
2019-03-01T13:05:29.117Z,3.17
2019-03-01T13:07:57.128Z,3.55
2019-03-01T13:10:25.410Z,2.60
2019-03-01T13:12:54.603Z,2.95
2019-03-01T13:15:21.687Z,3.55
2019-03-01T13:17:49.980Z,3.55
2019-03-01T13:20:17.845Z,3.95
2019-03-01T13:22:45.133Z,3.52
2019-03-01T13:25:12.449Z,2.80
2019-03-01T13:27:39.754Z,4.00
2019-03-01T13:30:16.938Z,4.25
2019-03-01T13:32:44.257Z,4.00
2019-03-01T13:35:16.318Z,5.22
2019-03-01T13:37:43.570Z,6.28
2019-03-01T13:40:11.858Z,4.95
2019-03-01T13:42:39.141Z,6.62
2019-03-01T13:45:08.195Z,6.90
2019-03-01T13:47:35.490Z,5.75
2019-03-01T13:50:06.737Z,4.83
2019-03-01T13:52:33.018Z,5.70
2019-03-01T13:55:00.327Z,4.45
2019-03-01T13:57:28.072Z,5.00
2019-03-01T13:59:55.408Z,3.77
2019-03-01T14:02:22.718Z,4.78
2019-03-01T14:04:50.010Z,4.65
2019-03-01T14:07:17.294Z,3.90
2019-03-01T14:09:44.607Z,8.18
2019-03-01T14:12:12.071Z,6.05
2019-03-01T14:14:39.359Z,3.67
2019-03-01T14:17:06.647Z,4.62
2019-03-01T14:19:33.955Z,5.40
2019-03-01T14:22:01.292Z,4.90
2019-03-01T14:24:29.507Z,5.20
2019-03-01T14:26:59.135Z,5.20
2019-03-01T14:29:26.493Z,4.78
2019-03-01T14:31:53.783Z,5.25
2019-03-01T14:34:21.067Z,5.20
2019-03-01T14:36:48.384Z,4.90
2019-03-01T14:39:15.965Z,5.12
2019-03-01T14:41:43.242Z,5.83
2019-03-01T14:44:10.550Z,5.33
2019-03-01T14:46:37.839Z,5.10
2019-03-01T14:49:05.154Z,6.00
2019-03-01T14:51:32.430Z,6.60
2019-03-01T14:53:59.750Z,5.83
2019-03-01T14:56:31.279Z,5.90
2019-03-01T14:58:59.114Z,5.75
2019-03-01T15:01:31.504Z,5.58
2019-03-01T15:03:58.793Z,5.92
2019-03-01T15:06:26.084Z,6.15
2019-03-01T15:08:53.402Z,6.90
2019-03-01T15:11:20.762Z,5.65
2019-03-01T15:13:48.052Z,4.92
2019-03-01T15:16:15.360Z,4.12
2019-03-01T15:18:42.922Z,4.03
2019-03-01T15:21:10.797Z,3.60
2019-03-01T15:23:38.090Z,5.37
2019-03-01T15:26:05.425Z,3.90
2019-03-01T15:28:32.701Z,3.45
2019-03-01T15:30:59.981Z,4.37
2019-03-01T15:33:27.290Z,4.12
2019-03-01T15:35:54.573Z,2.00
2019-03-01T15:38:23.777Z,2.22
2019-03-01T15:40:51.936Z,2.87
2019-03-01T15:43:20.218Z,2.58
2019-03-01T15:45:48.625Z,3.02
2019-03-01T15:48:17.166Z,3.08
2019-03-01T15:50:45.646Z,2.72
2019-03-01T15:53:14.493Z,3.08
2019-03-01T15:55:43.287Z,2.67
2019-03-01T15:58:11.957Z,2.80
2019-03-01T16:00:40.942Z,3.67
2019-03-01T16:03:10.808Z,3.92
2019-03-01T16:05:38.363Z,5.00
2019-03-01T16:08:08.255Z,5.62
2019-03-01T16:10:36.154Z,5.62
2019-03-01T16:13:03.503Z,5.75
2019-03-01T16:15:30.799Z,5.50
2019-03-01T16:18:01.123Z,5.67
2019-03-01T16:20:29.284Z,6.50
2019-03-01T16:22:57.528Z,5.90
2019-03-01T16:25:26.286Z,5.58
2019-03-01T16:27:54.266Z,5.83
2019-03-01T16:30:23.249Z,5.80
2019-03-01T16:32:50.812Z,5.95
2019-03-01T16:35:18.917Z,6.15
2019-03-01T16:37:49.188Z,6.47
2019-03-01T16:40:18.031Z,6.83
2019-03-01T16:42:52.817Z,6.35
2019-03-01T16:45:17.646Z,6.45
2019-03-01T16:47:46.661Z,6.75
2019-03-01T16:50:16.110Z,6.70
2019-03-01T16:52:44.654Z,7.03
2019-03-01T16:55:14.742Z,6.40
2019-03-01T16:57:43.182Z,6.40
2019-03-01T17:00:18.317Z,5.65
2019-03-01T17:02:48.708Z,5.67
2019-03-01T17:05:17.369Z,6.20
2019-03-01T17:07:45.566Z,6.65
2019-03-01T17:10:15.841Z,6.95
2019-03-01T17:12:44.306Z,6.72
2019-03-01T17:15:14.658Z,6.87
2019-03-01T17:17:43.263Z,7.00
2019-03-01T17:20:11.469Z,7.33
2019-03-01T17:22:39.539Z,6.10
2019-03-01T17:25:08.520Z,7.30
2019-03-01T17:27:36.783Z,8.78
2019-03-01T17:30:05.960Z,7.45
2019-03-01T17:32:34.193Z,8.85
2019-03-01T17:35:04.874Z,7.08
2019-03-01T17:37:33.585Z,6.70
2019-03-01T17:40:01.796Z,6.87
2019-03-01T17:42:29.951Z,6.78
2019-03-01T17:44:58.467Z,6.20
2019-03-01T17:47:26.550Z,7.37
2019-03-01T17:49:54.806Z,6.60
2019-03-01T17:52:22.215Z,6.65
2019-03-01T17:54:49.502Z,6.00
2019-03-01T17:57:16.844Z,6.05
2019-03-01T17:59:44.638Z,5.35
2019-03-01T18:02:14.967Z,6.60
2019-03-01T18:04:41.988Z,5.55
2019-03-01T18:07:09.322Z,11.57
2019-03-01T18:09:36.620Z,6.28
2019-03-01T18:12:03.897Z,7.40
2019-03-01T18:14:33.800Z,6.90
2019-03-01T18:17:00.424Z,6.30
2019-03-01T18:19:28.545Z,7.45
2019-03-01T18:21:55.829Z,9.10
2019-03-01T18:24:23.134Z,9.25
2019-03-01T18:26:51.347Z,6.87
2019-03-01T18:29:18.634Z,7.50
2019-03-01T18:31:45.938Z,6.95
2019-03-01T18:34:13.227Z,7.65
2019-03-01T18:36:40.525Z,7.58
2019-03-01T18:39:10.635Z,8.10
2019-03-01T18:41:37.920Z,8.73
2019-03-01T18:44:05.234Z,7.08
2019-03-01T18:46:32.524Z,8.40
2019-03-01T18:48:59.838Z,9.55
2019-03-01T18:51:27.159Z,10.90
2019-03-01T18:53:54.479Z,8.03
2019-03-01T18:56:24.933Z,7.80
2019-03-01T18:58:50.704Z,8.98
2019-03-01T19:01:18.031Z,10.03
2019-03-01T19:03:45.363Z,8.18
2019-03-01T19:06:15.892Z,8.88
2019-03-01T19:08:41.634Z,7.33
2019-03-01T19:11:08.940Z,8.50
2019-03-01T19:13:36.259Z,9.20
2019-03-01T19:16:03.581Z,8.45
2019-03-01T19:18:30.875Z,8.50
2019-03-01T19:20:58.167Z,8.28
2019-03-01T19:23:25.891Z,8.03
2019-03-01T19:25:53.190Z,8.00
2019-03-01T19:28:20.474Z,8.78
2019-03-01T19:30:49.343Z,8.73
2019-03-01T19:33:17.242Z,8.33
2019-03-01T19:35:44.635Z,8.73
2019-03-01T19:38:11.972Z,9.18
2019-03-01T19:40:39.254Z,10.55
2019-03-01T19:43:06.898Z,10.18
2019-03-01T19:45:37.547Z,10.50
2019-03-01T19:48:04.468Z,11.65
2019-03-01T19:50:31.786Z,10.15
2019-03-01T19:52:59.080Z,11.93
2019-03-01T19:55:26.387Z,11.28
2019-03-01T19:57:53.697Z,12.18
2019-03-01T20:00:25.586Z,13.83
2019-03-01T20:02:52.889Z,14.33
2019-03-01T20:05:21.805Z,15.18
2019-03-01T20:07:51.775Z,17.35
2019-03-01T20:10:18.111Z,17.20
2019-03-01T20:12:45.406Z,18.30
2019-03-01T20:15:16.610Z,17.57
2019-03-01T20:17:44.605Z,17.98
2019-03-01T20:20:13.241Z,19.80
2019-03-01T20:22:40.570Z,19.00
2019-03-01T20:25:09.135Z,19.65
2019-03-01T20:27:39.080Z,18.82
2019-03-01T20:30:07.025Z,21.80
2019-03-01T20:32:34.328Z,21.23
2019-03-01T20:35:01.659Z,20.35
2019-03-01T20:37:28.946Z,23.90
2019-03-01T20:39:56.246Z,21.82
2019-03-01T20:42:24.503Z,23.50
2019-03-01T20:44:53.097Z,26.12
2019-03-01T20:47:22.907Z,24.85
2019-03-01T20:49:49.800Z,25.08
2019-03-01T20:52:17.098Z,25.65
2019-03-01T20:54:44.402Z,26.07
2019-03-01T20:57:11.717Z,26.93
2019-03-01T20:59:39.141Z,28.32
2019-03-01T21:02:09.532Z,29.67
2019-03-01T21:04:36.675Z,26.73
2019-03-01T21:07:04.284Z,28.32
2019-03-01T21:09:31.611Z,27.07
2019-03-01T21:12:01.068Z,27.40
2019-03-01T21:14:27.907Z,28.25
2019-03-01T21:16:55.158Z,28.47
2019-03-01T21:19:22.454Z,28.60
2019-03-01T21:21:49.746Z,27.75
2019-03-01T21:24:17.052Z,27.98
2019-03-01T21:26:44.345Z,27.10
2019-03-01T21:29:12.444Z,25.50
2019-03-01T21:31:40.686Z,28.32
2019-03-01T21:34:07.978Z,28.30
2019-03-01T21:36:35.294Z,25.17
2019-03-01T21:39:04.739Z,26.00
2019-03-01T21:41:32.091Z,25.08
2019-03-01T21:43:59.399Z,27.05
2019-03-01T21:46:26.717Z,25.43
2019-03-01T21:48:56.794Z,25.90
2019-03-01T21:51:22.960Z,25.85
2019-03-01T21:53:50.281Z,26.07
2019-03-01T21:56:17.579Z,26.73
2019-03-01T21:58:44.868Z,25.35
2019-03-01T22:01:12.181Z,23.35
2019-03-01T22:03:40.724Z,25.02
2019-03-01T22:06:08.166Z,25.32
2019-03-01T22:08:35.457Z,25.72
2019-03-01T22:11:02.783Z,23.70
2019-03-01T22:13:32.567Z,25.40
2019-03-01T22:16:00.965Z,22.90
2019-03-01T22:18:27.975Z,24.23
2019-03-01T22:20:55.283Z,23.25
2019-03-01T22:23:22.597Z,25.85
2019-03-01T22:25:49.917Z,25.37
2019-03-01T22:28:17.223Z,26.37
2019-03-01T22:30:44.518Z,24.23
2019-03-01T22:33:11.832Z,24.77
2019-03-01T22:35:40.479Z,29.30
2019-03-01T22:38:08.135Z,27.22
2019-03-01T22:40:35.439Z,26.75
2019-03-01T22:43:02.738Z,26.30
2019-03-01T22:45:30.057Z,25.97
2019-03-01T22:47:57.344Z,26.48
2019-03-01T22:50:24.643Z,28.05
2019-03-01T22:52:51.959Z,26.73
2019-03-01T22:55:19.512Z,26.82
2019-03-01T22:57:46.854Z,29.55
2019-03-01T23:00:29.519Z,27.95
2019-03-01T23:02:57.000Z,26.55
2019-03-01T23:05:24.297Z,25.48
2019-03-01T23:07:51.642Z,28.47
2019-03-01T23:10:21.531Z,27.13
2019-03-01T23:12:47.905Z,25.70
2019-03-01T23:15:15.198Z,25.27
2019-03-01T23:17:42.503Z,28.52
2019-03-01T23:20:10.681Z,27.50
2019-03-01T23:22:37.978Z,28.67
2019-03-01T23:25:07.603Z,30.90
2019-03-01T23:27:34.403Z,28.05
2019-03-01T23:30:01.712Z,27.62
2019-03-01T23:32:29.025Z,27.40
2019-03-01T23:34:56.353Z,29.65
2019-03-01T23:37:23.702Z,27.58
2019-03-01T23:39:51.003Z,30.60
2019-03-01T23:42:20.775Z,28.50
2019-03-01T23:44:47.287Z,27.05
2019-03-01T23:47:14.579Z,29.55
2019-03-01T23:49:41.897Z,28.87
2019-03-01T23:52:09.229Z,26.87
2019-03-01T23:54:36.517Z,27.05
2019-03-01T23:57:05.709Z,27.27
2019-03-01T23:59:32.783Z,29.20
